sensor_id;sensor_type;location;lat;lon;timestamp;pressure;altitude;pressure_sealevel;temperature;humidity
11621;BME280;5866;49.094;11.900;2023-04-01T00:02:03;94829.50;;;8.47;100.00
11621;BME280;5866;49.094;11.900;2023-04-01T00:04:30;94820.56;;;8.48;100.00
11621;BME280;5866;49.094;11.900;2023-04-01T00:06:58;94812.81;;;8.47;100.00
11621;BME280;5866;49.094;11.900;2023-04-01T00:09:26;94803.06;;;8.18;100.00
11621;BME280;5866;49.094;11.900;2023-04-01T00:11:56;94815.38;;;8.40;100.00
11621;BME280;5866;49.094;11.900;2023-04-01T00:14:24;94815.75;;;8.52;100.00
11621;BME280;5866;49.094;11.900;2023-04-01T00:16:51;94809.84;;;8.35;100.00
11621;BME280;5866;49.094;11.900;2023-04-01T00:19:19;94818.13;;;8.32;100.00
11621;BME280;5866;49.094;11.900;2023-04-01T00:21:47;94824.03;;;8.34;100.00
11621;BME280;5866;49.094;11.900;2023-04-01T00:24:14;94812.84;;;8.32;100.00
11621;BME280;5866;49.094;11.900;2023-04-01T00:26:42;94812.28;;;8.37;100.00
11621;BME280;5866;49.094;11.900;2023-04-01T00:29:12;94818.94;;;8.47;100.00
11621;BME280;5866;49.094;11.900;2023-04-01T00:31:39;94811.00;;;8.47;100.00
11621;BME280;5866;49.094;11.900;2023-04-01T00:34:07;94814.31;;;8.35;100.00
11621;BME280;5866;49.094;11.900;2023-04-01T00:36:34;94811.28;;;8.52;100.00
11621;BME280;5866;49.094;11.900;2023-04-01T00:39:02;94812.09;;;8.38;100.00
11621;BME280;5866;49.094;11.900;2023-04-01T00:41:29;94806.03;;;8.38;100.00
11621;BME280;5866;49.094;11.900;2023-04-01T00:46:51;94812.59;;;8.92;100.00
11621;BME280;5866;49.094;11.900;2023-04-01T00:49:22;94799.69;;;8.68;100.00
11621;BME280;5866;49.094;11.900;2023-04-01T00:51:53;94801.50;;;8.24;100.00
11621;BME280;5866;49.094;11.900;2023-04-01T00:54:24;94814.91;;;8.22;100.00
11621;BME280;5866;49.094;11.900;2023-04-01T00:56:55;94813.88;;;8.09;100.00
11621;BME280;5866;49.094;11.900;2023-04-01T00:59:25;94823.56;;;8.01;100.00
11621;BME280;5866;49.094;11.900;2023-04-01T01:01:55;94810.34;;;8.16;100.00
11621;BME280;5866;49.094;11.900;2023-04-01T01:04:24;94801.78;;;8.14;100.00
11621;BME280;5866;49.094;11.900;2023-04-01T01:06:58;94801.31;;;8.11;100.00
11621;BME280;5866;49.094;11.900;2023-04-01T01:09:36;94798.13;;;8.15;100.00
11621;BME280;5866;49.094;11.900;2023-04-01T01:12:11;94799.41;;;8.04;100.00
11621;BME280;5866;49.094;11.900;2023-04-01T01:14:48;94801.41;;;8.17;100.00
11621;BME280;5866;49.094;11.900;2023-04-01T01:17:26;94799.69;;;8.10;100.00
11621;BME280;5866;49.094;11.900;2023-04-01T01:20:09;94805.16;;;8.08;100.00
11621;BME280;5866;49.094;11.900;2023-04-01T01:23:09;94808.91;;;8.28;100.00
11621;BME280;5866;49.094;11.900;2023-04-01T01:25:47;94807.38;;;8.34;100.00
11621;BME280;5866;49.094;11.900;2023-04-01T01:28:28;94803.81;;;8.41;100.00
11621;BME280;5866;49.094;11.900;2023-04-01T01:31:07;94803.00;;;8.41;100.00
11621;BME280;5866;49.094;11.900;2023-04-01T01:33:51;94796.56;;;8.79;100.00
11621;BME280;5866;49.094;11.900;2023-04-01T01:36:23;94798.78;;;8.46;100.00
11621;BME280;5866;49.094;11.900;2023-04-01T01:38:52;94800.00;;;8.29;100.00
11621;BME280;5866;49.094;11.900;2023-04-01T01:41:21;94803.16;;;8.25;100.00
11621;BME280;5866;49.094;11.900;2023-04-01T01:43:50;94803.38;;;8.52;100.00
11621;BME280;5866;49.094;11.900;2023-04-01T01:46:22;94796.97;;;8.47;100.00
11621;BME280;5866;49.094;11.900;2023-04-01T01:48:51;94804.63;;;8.71;100.00
11621;BME280;5866;49.094;11.900;2023-04-01T01:51:21;94803.97;;;8.69;100.00
11621;BME280;5866;49.094;11.900;2023-04-01T01:53:50;94796.97;;;8.61;100.00
11621;BME280;5866;49.094;11.900;2023-04-01T01:56:18;94795.97;;;8.62;100.00
11621;BME280;5866;49.094;11.900;2023-04-01T01:58:51;94800.72;;;8.52;100.00
11621;BME280;5866;49.094;11.900;2023-04-01T02:01:22;94794.59;;;8.66;100.00
11621;BME280;5866;49.094;11.900;2023-04-01T02:03:52;94802.13;;;8.69;100.00
11621;BME280;5866;49.094;11.900;2023-04-01T02:06:24;94785.56;;;8.46;100.00
11621;BME280;5866;49.094;11.900;2023-04-01T02:08:55;94791.97;;;8.37;100.00
11621;BME280;5866;49.094;11.900;2023-04-01T02:11:26;94794.78;;;8.36;100.00
11621;BME280;5866;49.094;11.900;2023-04-01T02:13:58;94792.75;;;8.23;100.00
11621;BME280;5866;49.094;11.900;2023-04-01T02:16:33;94795.50;;;8.15;100.00
11621;BME280;5866;49.094;11.900;2023-04-01T02:19:03;94797.59;;;8.20;100.00
11621;BME280;5866;49.094;11.900;2023-04-01T02:21:35;94807.09;;;8.43;100.00
11621;BME280;5866;49.094;11.900;2023-04-01T02:24:06;94792.34;;;8.34;100.00
11621;BME280;5866;49.094;11.900;2023-04-01T02:26:35;94802.16;;;8.40;100.00
11621;BME280;5866;49.094;11.900;2023-04-01T02:29:03;94803.28;;;8.31;100.00
11621;BME280;5866;49.094;11.900;2023-04-01T02:31:33;94800.88;;;8.51;100.00
11621;BME280;5866;49.094;11.900;2023-04-01T02:34:02;94800.63;;;8.46;100.00
11621;BME280;5866;49.094;11.900;2023-04-01T02:36:31;94808.56;;;8.46;100.00
11621;BME280;5866;49.094;11.900;2023-04-01T02:39:00;94813.19;;;8.58;100.00
11621;BME280;5866;49.094;11.900;2023-04-01T02:41:30;94802.34;;;8.53;100.00
11621;BME280;5866;49.094;11.900;2023-04-01T02:43:58;94810.09;;;8.55;100.00
11621;BME280;5866;49.094;11.900;2023-04-01T02:46:25;94813.47;;;8.49;100.00
11621;BME280;5866;49.094;11.900;2023-04-01T02:48:53;94817.84;;;8.42;100.00
11621;BME280;5866;49.094;11.900;2023-04-01T02:51:21;94816.66;;;8.44;100.00
11621;BME280;5866;49.094;11.900;2023-04-01T02:53:48;94818.72;;;8.20;100.00
11621;BME280;5866;49.094;11.900;2023-04-01T02:56:17;94822.66;;;8.38;100.00
11621;BME280;5866;49.094;11.900;2023-04-01T02:58:45;94827.94;;;8.53;100.00
11621;BME280;5866;49.094;11.900;2023-04-01T03:01:13;94829.81;;;8.38;100.00
11621;BME280;5866;49.094;11.900;2023-04-01T03:03:40;94828.59;;;8.40;100.00
11621;BME280;5866;49.094;11.900;2023-04-01T03:06:10;94829.72;;;8.31;100.00
11621;BME280;5866;49.094;11.900;2023-04-01T03:08:38;94835.16;;;8.30;100.00
11621;BME280;5866;49.094;11.900;2023-04-01T03:11:06;94843.31;;;8.20;100.00
11621;BME280;5866;49.094;11.900;2023-04-01T03:13:34;94842.34;;;8.36;100.00
11621;BME280;5866;49.094;11.900;2023-04-01T03:16:02;94832.50;;;8.30;100.00
11621;BME280;5866;49.094;11.900;2023-04-01T03:18:30;94838.06;;;8.35;100.00
11621;BME280;5866;49.094;11.900;2023-04-01T03:21:12;94840.28;;;8.31;100.00
11621;BME280;5866;49.094;11.900;2023-04-01T03:23:39;94837.53;;;8.39;100.00
11621;BME280;5866;49.094;11.900;2023-04-01T03:26:07;94839.31;;;8.24;100.00
11621;BME280;5866;49.094;11.900;2023-04-01T03:28:36;94838.53;;;8.38;100.00
11621;BME280;5866;49.094;11.900;2023-04-01T03:31:04;94834.03;;;8.24;100.00
11621;BME280;5866;49.094;11.900;2023-04-01T03:33:32;94843.66;;;8.17;100.00
11621;BME280;5866;49.094;11.900;2023-04-01T03:35:59;94842.28;;;8.29;100.00
11621;BME280;5866;49.094;11.900;2023-04-01T03:38:27;94840.91;;;8.33;100.00
11621;BME280;5866;49.094;11.900;2023-04-01T03:40:55;94846.50;;;8.16;100.00
11621;BME280;5866;49.094;11.900;2023-04-01T03:43:22;94848.28;;;8.38;100.00
11621;BME280;5866;49.094;11.900;2023-04-01T03:45:51;94844.44;;;8.26;100.00
11621;BME280;5866;49.094;11.900;2023-04-01T03:48:20;94837.94;;;8.14;100.00
11621;BME280;5866;49.094;11.900;2023-04-01T03:50:48;94852.53;;;8.24;100.00
11621;BME280;5866;49.094;11.900;2023-04-01T03:53:16;94847.91;;;8.26;100.00
11621;BME280;5866;49.094;11.900;2023-04-01T03:55:43;94850.84;;;8.31;100.00
11621;BME280;5866;49.094;11.900;2023-04-01T03:58:11;94835.63;;;8.33;100.00
11621;BME280;5866;49.094;11.900;2023-04-01T04:00:39;94843.00;;;8.52;100.00
11621;BME280;5866;49.094;11.900;2023-04-01T04:03:08;94850.84;;;8.60;100.00
11621;BME280;5866;49.094;11.900;2023-04-01T04:05:36;94846.19;;;8.62;100.00
11621;BME280;5866;49.094;11.900;2023-04-01T04:08:03;94848.75;;;8.41;100.00
11621;BME280;5866;49.094;11.900;2023-04-01T04:10:31;94842.44;;;8.28;100.00
11621;BME280;5866;49.094;11.900;2023-04-01T04:12:58;94858.13;;;8.29;100.00
11621;BME280;5866;49.094;11.900;2023-04-01T04:15:26;94861.56;;;8.30;100.00
11621;BME280;5866;49.094;11.900;2023-04-01T04:17:53;94861.41;;;8.31;100.00
11621;BME280;5866;49.094;11.900;2023-04-01T04:20:22;94863.16;;;8.16;100.00
11621;BME280;5866;49.094;11.900;2023-04-01T04:22:50;94864.63;;;8.04;100.00
11621;BME280;5866;49.094;11.900;2023-04-01T04:25:17;94865.59;;;8.03;100.00
11621;BME280;5866;49.094;11.900;2023-04-01T04:27:45;94876.25;;;7.95;100.00
11621;BME280;5866;49.094;11.900;2023-04-01T04:30:13;94874.75;;;7.78;100.00
11621;BME280;5866;49.094;11.900;2023-04-01T04:32:40;94872.47;;;8.12;100.00
11621;BME280;5866;49.094;11.900;2023-04-01T04:35:08;94879.75;;;8.10;100.00
11621;BME280;5866;49.094;11.900;2023-04-01T04:37:37;94879.00;;;8.16;100.00
11621;BME280;5866;49.094;11.900;2023-04-01T04:40:06;94871.34;;;8.07;100.00
11621;BME280;5866;49.094;11.900;2023-04-01T04:42:33;94883.16;;;7.96;100.00
11621;BME280;5866;49.094;11.900;2023-04-01T04:45:01;94876.09;;;7.74;100.00
11621;BME280;5866;49.094;11.900;2023-04-01T04:47:29;94879.03;;;7.79;100.00
11621;BME280;5866;49.094;11.900;2023-04-01T04:49:56;94870.28;;;7.78;100.00
11621;BME280;5866;49.094;11.900;2023-04-01T04:52:24;94874.28;;;7.74;100.00
11621;BME280;5866;49.094;11.900;2023-04-01T04:54:53;94877.91;;;7.73;100.00
11621;BME280;5866;49.094;11.900;2023-04-01T04:57:20;94880.00;;;7.78;100.00
11621;BME280;5866;49.094;11.900;2023-04-01T04:59:48;94888.00;;;7.70;100.00
11621;BME280;5866;49.094;11.900;2023-04-01T05:02:16;94892.31;;;7.85;100.00
11621;BME280;5866;49.094;11.900;2023-04-01T05:04:43;94893.59;;;8.12;100.00
11621;BME280;5866;49.094;11.900;2023-04-01T05:07:11;94885.19;;;8.31;100.00
11621;BME280;5866;49.094;11.900;2023-04-01T05:09:39;94892.28;;;8.31;100.00
11621;BME280;5866;49.094;11.900;2023-04-01T05:12:07;94902.94;;;8.37;100.00
11621;BME280;5866;49.094;11.900;2023-04-01T05:14:35;94894.72;;;8.32;100.00
11621;BME280;5866;49.094;11.900;2023-04-01T05:17:02;94895.66;;;8.39;100.00
11621;BME280;5866;49.094;11.900;2023-04-01T05:19:30;94897.22;;;8.11;100.00
11621;BME280;5866;49.094;11.900;2023-04-01T05:21:58;94908.13;;;8.31;100.00
11621;BME280;5866;49.094;11.900;2023-04-01T05:24:25;94887.63;;;8.47;100.00
11621;BME280;5866;49.094;11.900;2023-04-01T05:26:53;94902.41;;;8.56;100.00
11621;BME280;5866;49.094;11.900;2023-04-01T05:29:23;94892.09;;;8.47;100.00
11621;BME280;5866;49.094;11.900;2023-04-01T05:31:51;94895.00;;;8.81;100.00
11621;BME280;5866;49.094;11.900;2023-04-01T05:34:19;94884.00;;;8.77;100.00
11621;BME280;5866;49.094;11.900;2023-04-01T05:36:46;94882.91;;;8.57;100.00
11621;BME280;5866;49.094;11.900;2023-04-01T05:39:14;94881.34;;;8.48;100.00
11621;BME280;5866;49.094;11.900;2023-04-01T05:41:41;94894.19;;;8.51;100.00
11621;BME280;5866;49.094;11.900;2023-04-01T05:44:11;94888.47;;;8.62;100.00
11621;BME280;5866;49.094;11.900;2023-04-01T05:46:40;94891.91;;;8.92;100.00
11621;BME280;5866;49.094;11.900;2023-04-01T05:49:07;94886.38;;;9.23;100.00
11621;BME280;5866;49.094;11.900;2023-04-01T05:51:35;94893.84;;;9.34;100.00
11621;BME280;5866;49.094;11.900;2023-04-01T05:54:04;94890.66;;;9.24;100.00
11621;BME280;5866;49.094;11.900;2023-04-01T05:56:32;94887.88;;;9.11;100.00
11621;BME280;5866;49.094;11.900;2023-04-01T05:58:59;94897.06;;;9.15;100.00
11621;BME280;5866;49.094;11.900;2023-04-01T06:01:26;94889.44;;;8.91;100.00
11621;BME280;5866;49.094;11.900;2023-04-01T06:03:55;94895.03;;;9.31;100.00
11621;BME280;5866;49.094;11.900;2023-04-01T06:06:25;94887.16;;;9.02;100.00
11621;BME280;5866;49.094;11.900;2023-04-01T06:08:56;94890.66;;;9.24;100.00
11621;BME280;5866;49.094;11.900;2023-04-01T06:11:30;94903.66;;;8.90;100.00
11621;BME280;5866;49.094;11.900;2023-04-01T06:14:09;94895.53;;;8.91;100.00
11621;BME280;5866;49.094;11.900;2023-04-01T06:16:44;94898.38;;;9.04;100.00
11621;BME280;5866;49.094;11.900;2023-04-01T06:19:26;94890.88;;;9.08;100.00
11621;BME280;5866;49.094;11.900;2023-04-01T06:25:07;94902.16;;;9.52;100.00
11621;BME280;5866;49.094;11.900;2023-04-01T06:27:55;94909.88;;;9.32;100.00
11621;BME280;5866;49.094;11.900;2023-04-01T06:30:34;94907.53;;;9.23;100.00
11621;BME280;5866;49.094;11.900;2023-04-01T06:33:23;94912.88;;;9.44;100.00
11621;BME280;5866;49.094;11.900;2023-04-01T06:36:14;94906.88;;;9.35;100.00
11621;BME280;5866;49.094;11.900;2023-04-01T06:38:55;94912.03;;;9.08;100.00
11621;BME280;5866;49.094;11.900;2023-04-01T06:41:39;94915.00;;;8.84;100.00
11621;BME280;5866;49.094;11.900;2023-04-01T06:44:16;94925.16;;;9.16;100.00
11621;BME280;5866;49.094;11.900;2023-04-01T06:46:52;94915.72;;;9.42;100.00
11621;BME280;5866;49.094;11.900;2023-04-01T06:49:40;94923.13;;;9.18;100.00
11621;BME280;5866;49.094;11.900;2023-04-01T06:52:19;94924.38;;;9.36;100.00
11621;BME280;5866;49.094;11.900;2023-04-01T06:54:51;94910.81;;;9.60;100.00
11621;BME280;5866;49.094;11.900;2023-04-01T06:57:24;94909.72;;;9.97;100.00
11621;BME280;5866;49.094;11.900;2023-04-01T06:59:57;94915.91;;;10.04;100.00
11621;BME280;5866;49.094;11.900;2023-04-01T07:02:32;94914.25;;;10.03;100.00
11621;BME280;5866;49.094;11.900;2023-04-01T07:05:03;94902.28;;;10.90;100.00
11621;BME280;5866;49.094;11.900;2023-04-01T07:07:36;94897.31;;;10.47;100.00
11621;BME280;5866;49.094;11.900;2023-04-01T07:10:11;94895.88;;;11.19;100.00
11621;BME280;5866;49.094;11.900;2023-04-01T07:12:44;94896.13;;;11.24;100.00
11621;BME280;5866;49.094;11.900;2023-04-01T07:15:18;94902.56;;;11.08;100.00
11621;BME280;5866;49.094;11.900;2023-04-01T07:17:48;94900.38;;;10.78;100.00
11621;BME280;5866;49.094;11.900;2023-04-01T07:20:23;94903.47;;;10.88;100.00
11621;BME280;5866;49.094;11.900;2023-04-01T07:22:57;94901.53;;;10.69;100.00
11621;BME280;5866;49.094;11.900;2023-04-01T07:25:27;94900.44;;;10.91;100.00
11621;BME280;5866;49.094;11.900;2023-04-01T07:28:00;94895.13;;;11.38;97.92
11621;BME280;5866;49.094;11.900;2023-04-01T07:30:33;94903.63;;;11.14;97.89
11621;BME280;5866;49.094;11.900;2023-04-01T07:33:05;94910.06;;;10.98;98.20
11621;BME280;5866;49.094;11.900;2023-04-01T07:35:39;94908.25;;;10.65;100.00
11621;BME280;5866;49.094;11.900;2023-04-01T07:38:20;94900.94;;;10.73;100.00
11621;BME280;5866;49.094;11.900;2023-04-01T07:40:59;94894.53;;;10.89;100.00
11621;BME280;5866;49.094;11.900;2023-04-01T07:43:40;94911.72;;;11.06;100.00
11621;BME280;5866;49.094;11.900;2023-04-01T07:46:17;94904.34;;;10.95;100.00
11621;BME280;5866;49.094;11.900;2023-04-01T07:48:53;94906.66;;;10.15;100.00
11621;BME280;5866;49.094;11.900;2023-04-01T07:51:27;94908.16;;;10.52;100.00
11621;BME280;5866;49.094;11.900;2023-04-01T07:54:04;94908.88;;;11.01;100.00
11621;BME280;5866;49.094;11.900;2023-04-01T07:56:38;94919.53;;;11.07;100.00
11621;BME280;5866;49.094;11.900;2023-04-01T07:59:16;94910.81;;;11.33;97.20
11621;BME280;5866;49.094;11.900;2023-04-01T08:01:53;94909.66;;;10.95;98.73
11621;BME280;5866;49.094;11.900;2023-04-01T08:04:36;94903.91;;;10.85;100.00
11621;BME280;5866;49.094;11.900;2023-04-01T08:07:12;94903.22;;;11.17;97.66
11621;BME280;5866;49.094;11.900;2023-04-01T08:09:47;94904.75;;;10.98;99.10
11621;BME280;5866;49.094;11.900;2023-04-01T08:12:25;94896.81;;;11.52;96.52
11621;BME280;5866;49.094;11.900;2023-04-01T08:15:04;94895.88;;;11.66;93.68
11621;BME280;5866;49.094;11.900;2023-04-01T08:17:41;94901.81;;;11.75;89.74
11621;BME280;5866;49.094;11.900;2023-04-01T08:20:21;94891.72;;;11.57;92.94
11621;BME280;5866;49.094;11.900;2023-04-01T08:22:57;94883.22;;;11.81;88.13
11621;BME280;5866;49.094;11.900;2023-04-01T08:25:29;94886.72;;;12.67;85.28
11621;BME280;5866;49.094;11.900;2023-04-01T08:28:03;94887.06;;;12.90;76.97
11621;BME280;5866;49.094;11.900;2023-04-01T08:30:38;94889.25;;;13.64;74.15
11621;BME280;5866;49.094;11.900;2023-04-01T08:33:12;94881.44;;;13.69;72.46
11621;BME280;5866;49.094;11.900;2023-04-01T08:35:46;94880.59;;;13.75;70.73
11621;BME280;5866;49.094;11.900;2023-04-01T08:38:19;94878.44;;;13.59;70.03
11621;BME280;5866;49.094;11.900;2023-04-01T08:40:59;94891.13;;;13.06;74.50
11621;BME280;5866;49.094;11.900;2023-04-01T08:43:41;94883.97;;;13.13;74.48
11621;BME280;5866;49.094;11.900;2023-04-01T08:46:30;94881.50;;;12.98;74.47
11621;BME280;5866;49.094;11.900;2023-04-01T08:49:16;94892.34;;;13.10;77.57
11621;BME280;5866;49.094;11.900;2023-04-01T08:52:11;94879.66;;;12.99;74.67
11621;BME280;5866;49.094;11.900;2023-04-01T08:55:02;94877.50;;;13.40;72.74
11621;BME280;5866;49.094;11.900;2023-04-01T08:57:45;94868.03;;;13.50;72.92
11621;BME280;5866;49.094;11.900;2023-04-01T09:00:29;94871.72;;;12.92;73.13
11621;BME280;5866;49.094;11.900;2023-04-01T09:06:19;94856.78;;;12.78;74.63
11621;BME280;5866;49.094;11.900;2023-04-01T09:09:01;94869.06;;;12.79;76.02
11621;BME280;5866;49.094;11.900;2023-04-01T09:11:44;94858.06;;;12.56;77.19
11621;BME280;5866;49.094;11.900;2023-04-01T09:14:30;94860.84;;;12.94;75.55
11621;BME280;5866;49.094;11.900;2023-04-01T09:17:29;94871.69;;;13.05;74.02
11621;BME280;5866;49.094;11.900;2023-04-01T09:20:17;94867.88;;;12.62;74.78
11621;BME280;5866;49.094;11.900;2023-04-01T09:23:00;94869.53;;;12.37;75.32
11621;BME280;5866;49.094;11.900;2023-04-01T09:25:53;94870.56;;;12.10;79.17
11621;BME280;5866;49.094;11.900;2023-04-01T09:28:28;94865.88;;;11.85;78.29
11621;BME280;5866;49.094;11.900;2023-04-01T09:31:20;94888.34;;;11.76;82.80
11621;BME280;5866;49.094;11.900;2023-04-01T09:34:14;94883.34;;;11.47;85.12
11621;BME280;5866;49.094;11.900;2023-04-01T09:36:56;94858.50;;;11.94;82.86
11621;BME280;5866;49.094;11.900;2023-04-01T09:39:35;94880.38;;;11.96;80.03
11621;BME280;5866;49.094;11.900;2023-04-01T09:42:15;94876.88;;;11.82;79.11
11621;BME280;5866;49.094;11.900;2023-04-01T09:44:54;94872.84;;;12.13;78.86
11621;BME280;5866;49.094;11.900;2023-04-01T09:47:42;94854.41;;;12.44;75.40
11621;BME280;5866;49.094;11.900;2023-04-01T09:50:27;94865.03;;;12.05;78.95
11621;BME280;5866;49.094;11.900;2023-04-01T09:53:07;94866.50;;;12.40;78.77
11621;BME280;5866;49.094;11.900;2023-04-01T09:55:56;94882.97;;;12.88;78.27
11621;BME280;5866;49.094;11.900;2023-04-01T09:58:50;94878.91;;;12.59;78.23
11621;BME280;5866;49.094;11.900;2023-04-01T10:01:41;94884.44;;;12.64;81.19
11621;BME280;5866;49.094;11.900;2023-04-01T10:04:27;94885.50;;;11.91;83.79
11621;BME280;5866;49.094;11.900;2023-04-01T10:07:21;94892.03;;;11.88;85.41
11621;BME280;5866;49.094;11.900;2023-04-01T10:10:19;94891.63;;;11.98;84.54
11621;BME280;5866;49.094;11.900;2023-04-01T10:13:08;94883.16;;;11.62;88.01
11621;BME280;5866;49.094;11.900;2023-04-01T10:18:51;94874.44;;;12.01;87.13
11621;BME280;5866;49.094;11.900;2023-04-01T10:21:52;94878.56;;;12.10;93.08
11621;BME280;5866;49.094;11.900;2023-04-01T10:24:55;94876.09;;;11.88;89.32
11621;BME280;5866;49.094;11.900;2023-04-01T10:28:05;94864.03;;;12.06;91.22
11621;BME280;5866;49.094;11.900;2023-04-01T10:31:17;94864.44;;;12.42;83.76
11621;BME280;5866;49.094;11.900;2023-04-01T10:34:16;94847.81;;;12.66;82.81
11621;BME280;5866;49.094;11.900;2023-04-01T10:36:53;94864.75;;;12.78;83.82
11621;BME280;5866;49.094;11.900;2023-04-01T10:39:45;94851.69;;;12.70;82.63
11621;BME280;5866;49.094;11.900;2023-04-01T10:45:47;94852.38;;;12.33;82.43
11621;BME280;5866;49.094;11.900;2023-04-01T10:48:32;94857.66;;;11.74;85.37
11621;BME280;5866;49.094;11.900;2023-04-01T10:51:17;94849.28;;;12.36;85.24
11621;BME280;5866;49.094;11.900;2023-04-01T10:54:17;94848.19;;;12.83;82.17
11621;BME280;5866;49.094;11.900;2023-04-01T10:56:51;94855.19;;;13.34;78.09
11621;BME280;5866;49.094;11.900;2023-04-01T11:02:57;94852.91;;;13.44;75.84
11621;BME280;5866;49.094;11.900;2023-04-01T11:05:53;94845.75;;;12.81;83.97
11621;BME280;5866;49.094;11.900;2023-04-01T11:08:57;94862.56;;;12.55;91.96
11621;BME280;5866;49.094;11.900;2023-04-01T11:15:27;94874.19;;;11.09;100.00
11621;BME280;5866;49.094;11.900;2023-04-01T11:21:34;94887.34;;;10.49;100.00
11621;BME280;5866;49.094;11.900;2023-04-01T11:24:20;94892.88;;;10.88;100.00
11621;BME280;5866;49.094;11.900;2023-04-01T11:26:58;94894.13;;;10.92;100.00
11621;BME280;5866;49.094;11.900;2023-04-01T11:29:40;94892.25;;;10.52;100.00
11621;BME280;5866;49.094;11.900;2023-04-01T11:32:32;94890.78;;;10.43;100.00
11621;BME280;5866;49.094;11.900;2023-04-01T11:35:28;94895.09;;;10.22;100.00
11621;BME280;5866;49.094;11.900;2023-04-01T11:38:08;94889.06;;;10.07;100.00
11621;BME280;5866;49.094;11.900;2023-04-01T11:40:45;94899.53;;;9.94;100.00
11621;BME280;5866;49.094;11.900;2023-04-01T11:43:20;94898.44;;;9.89;100.00
11621;BME280;5866;49.094;11.900;2023-04-01T11:46:03;94905.25;;;10.19;100.00
11621;BME280;5866;49.094;11.900;2023-04-01T11:48:52;94900.72;;;9.92;100.00
11621;BME280;5866;49.094;11.900;2023-04-01T11:51:46;94902.41;;;9.99;100.00
11621;BME280;5866;49.094;11.900;2023-04-01T11:54:27;94897.69;;;10.16;100.00
11621;BME280;5866;49.094;11.900;2023-04-01T11:57:05;94899.88;;;10.33;100.00
11621;BME280;5866;49.094;11.900;2023-04-01T11:59:49;94898.34;;;10.18;100.00
11621;BME280;5866;49.094;11.900;2023-04-01T12:02:25;94908.59;;;10.27;100.00
11621;BME280;5866;49.094;11.900;2023-04-01T12:05:14;94900.28;;;9.88;100.00
11621;BME280;5866;49.094;11.900;2023-04-01T12:07:55;94909.50;;;9.71;100.00
11621;BME280;5866;49.094;11.900;2023-04-01T12:10:33;94913.41;;;9.75;100.00
11621;BME280;5866;49.094;11.900;2023-04-01T12:13:11;94913.69;;;9.87;100.00
11621;BME280;5866;49.094;11.900;2023-04-01T12:15:55;94917.94;;;10.02;100.00
11621;BME280;5866;49.094;11.900;2023-04-01T12:18:28;94910.94;;;10.16;100.00
11621;BME280;5866;49.094;11.900;2023-04-01T12:21:11;94905.94;;;9.85;100.00
11621;BME280;5866;49.094;11.900;2023-04-01T12:23:57;94920.91;;;9.72;100.00
11621;BME280;5866;49.094;11.900;2023-04-01T12:26:39;94914.22;;;9.54;100.00
11621;BME280;5866;49.094;11.900;2023-04-01T12:29:35;94913.53;;;9.31;100.00
11621;BME280;5866;49.094;11.900;2023-04-01T12:32:16;94913.94;;;9.14;100.00
11621;BME280;5866;49.094;11.900;2023-04-01T12:35:10;94920.94;;;9.36;100.00
11621;BME280;5866;49.094;11.900;2023-04-01T12:37:49;94920.03;;;9.29;100.00
11621;BME280;5866;49.094;11.900;2023-04-01T12:40:27;94917.41;;;9.50;100.00
11621;BME280;5866;49.094;11.900;2023-04-01T12:43:05;94911.84;;;9.45;100.00
11621;BME280;5866;49.094;11.900;2023-04-01T12:45:41;94924.13;;;9.31;100.00
11621;BME280;5866;49.094;11.900;2023-04-01T12:48:35;94923.81;;;9.41;100.00
11621;BME280;5866;49.094;11.900;2023-04-01T12:54:40;94917.03;;;9.74;100.00
11621;BME280;5866;49.094;11.900;2023-04-01T12:57:37;94916.50;;;9.43;100.00
11621;BME280;5866;49.094;11.900;2023-04-01T13:00:24;94911.72;;;9.53;100.00
11621;BME280;5866;49.094;11.900;2023-04-01T13:03:05;94920.31;;;9.55;100.00
11621;BME280;5866;49.094;11.900;2023-04-01T13:05:51;94924.97;;;9.95;100.00
11621;BME280;5866;49.094;11.900;2023-04-01T13:08:36;94929.59;;;10.08;100.00
11621;BME280;5866;49.094;11.900;2023-04-01T13:11:14;94929.59;;;9.30;100.00
11621;BME280;5866;49.094;11.900;2023-04-01T13:17:02;94935.28;;;9.84;100.00
11621;BME280;5866;49.094;11.900;2023-04-01T13:19:38;94936.47;;;9.81;100.00
11621;BME280;5866;49.094;11.900;2023-04-01T13:22:28;94942.09;;;10.14;100.00
11621;BME280;5866;49.094;11.900;2023-04-01T13:25:03;94939.13;;;10.02;100.00
11621;BME280;5866;49.094;11.900;2023-04-01T13:27:38;94937.09;;;10.04;100.00
11621;BME280;5866;49.094;11.900;2023-04-01T13:30:21;94939.56;;;9.85;100.00
11621;BME280;5866;49.094;11.900;2023-04-01T13:32:59;94944.53;;;9.37;100.00
11621;BME280;5866;49.094;11.900;2023-04-01T13:35:36;94942.09;;;9.93;100.00
11621;BME280;5866;49.094;11.900;2023-04-01T13:38:25;94936.84;;;10.20;100.00
11621;BME280;5866;49.094;11.900;2023-04-01T13:41:01;94938.50;;;10.21;100.00
11621;BME280;5866;49.094;11.900;2023-04-01T13:43:37;94941.78;;;10.23;100.00
11621;BME280;5866;49.094;11.900;2023-04-01T13:46:17;94940.16;;;9.80;100.00
11621;BME280;5866;49.094;11.900;2023-04-01T13:48:58;94947.19;;;9.94;100.00
11621;BME280;5866;49.094;11.900;2023-04-01T13:51:54;94945.69;;;10.06;100.00
11621;BME280;5866;49.094;11.900;2023-04-01T13:54:45;94948.63;;;10.11;100.00
11621;BME280;5866;49.094;11.900;2023-04-01T13:57:33;94950.72;;;9.80;100.00
11621;BME280;5866;49.094;11.900;2023-04-01T14:00:35;94951.47;;;9.74;100.00
11621;BME280;5866;49.094;11.900;2023-04-01T14:03:30;94955.44;;;10.06;100.00
11621;BME280;5866;49.094;11.900;2023-04-01T14:06:06;94952.38;;;10.02;100.00
11621;BME280;5866;49.094;11.900;2023-04-01T14:08:52;94948.94;;;10.08;100.00
11621;BME280;5866;49.094;11.900;2023-04-01T14:11:29;94964.34;;;9.98;100.00
11621;BME280;5866;49.094;11.900;2023-04-01T14:14:06;94961.59;;;10.27;100.00
11621;BME280;5866;49.094;11.900;2023-04-01T14:17:21;94958.03;;;9.99;100.00
11621;BME280;5866;49.094;11.900;2023-04-01T14:20:22;94954.56;;;10.13;100.00